CheckWX is a tool to help pilots better visualize weather data.  It is not intended as a substitute for an official pre-flight weather briefing.

05:36:11 UTC

CYQB TAF
Quebec Jean Lesage International Airport Airport
Quebec, Quebec, Canada
TAF CYQB 100539Z 1006/1106 VRB03KT P6SM FEW250 PROB30 1008/1013 1SM BR FM101500 VRB03KT P6SM SCT070 PROB30 1018/1021 2SM TSRA BR BKN050CB FM102100 VRB03KT P6SM -SHRA BKN060 PROB30 1021/1103 2SM TSRA BR OVC060CB FM110300 VRB03KT P6SM BKN060 RMK NXT FCST BY 101200Z

Jul-10@
06:00 UTC

Jul-10 @ 06:00 UTC

Jul-10@
15:00 UTC

Jul-10 @ 15:00 UTC

TAF CYQB 100539Z 1006/1106 VRB03KT P6SM FEW250

Expired

Wind
  • Variable at 3 KTS
Cloud Levels
  • Few at 25,000' AGL

Jul-10@
08:00 UTC

Jul-10 @ 08:00 UTC

Jul-10@
13:00 UTC

Jul-10 @ 13:00 UTC

PROB30 1008/1013 1SM BR

Expired

Conditions
Mist
Cloud Levels

Jul-10@
15:00 UTC

Jul-10 @ 15:00 UTC

Jul-10@
21:00 UTC

Jul-10 @ 21:00 UTC

FM101500 VRB03KT P6SM SCT070

Expired

Wind
  • Variable at 3 KTS
Cloud Levels
  • Scattered at 7,000' AGL

Jul-10@
18:00 UTC

Jul-10 @ 18:00 UTC

Jul-10@
21:00 UTC

Jul-10 @ 21:00 UTC

PROB30 1018/1021 2SM TSRA BR BKN050CB

Expired

Conditions
Thunderstorm, Rain, Mist
Cloud Levels
  • Broken at 5,000' AGL

Jul-10@
21:00 UTC

Jul-10 @ 21:00 UTC

Jul-11@
03:00 UTC

Jul-11 @ 03:00 UTC

FM102100 VRB03KT P6SM -SHRA BKN060

Expired

Wind
  • Variable at 3 KTS
Conditions
Light Showers, Rain
Cloud Levels
  • Broken at 6,000' AGL

Jul-10@
21:00 UTC

Jul-10 @ 21:00 UTC

Jul-11@
03:00 UTC

Jul-11 @ 03:00 UTC

PROB30 1021/1103 2SM TSRA BR OVC060CB

Expired

Conditions
Thunderstorm, Rain, Mist
Cloud Levels
  • Overcast at 6,000' AGL

Jul-11@
03:00 UTC

Jul-11 @ 03:00 UTC

Jul-11@
06:00 UTC

Jul-11 @ 06:00 UTC

FM110300 VRB03KT P6SM BKN060 RMK NXT FCST BY 101200Z

From

From Standard forecast or significant change

Wind
  • Variable at 3 KTS
Cloud Levels
  • Broken at 6,000' AGL